Time;durP1;ratioP1;P1;durP2;ratioP2;P2;SDS_P1;SDS_P2;PMS_P1;PMS_P2;Temp;Humidity;BMP_temperature;BMP_pressure;BME280_temperature;BME280_humidity;BME280_pressure;Samples;Min_cycle;Max_cycle;Signal;HPM_P1;HPM_P2
2022/04/22 00:01:44;;;;;;;8.05;1.52;;;;;;;21.77;36.30;102604.06;4182518;28;20037;-64
2022/04/22 00:03:46;;;;;;;14.13;1.80;;;;;;;21.97;36.30;102641.81;4173185;28;20083;-64
2022/04/22 00:05:48;;;;;;;6.85;1.92;;;;;;;21.97;36.27;102645.44;4167218;28;20034;-65
2022/04/22 00:07:49;;;;;;;6.75;1.63;;;;;;;21.81;36.20;102616.41;4170274;28;20041;-67
2022/04/22 00:09:51;;;;;;;7.18;1.80;;;;;;;21.99;36.15;102645.19;4181243;28;20102;-65
2022/04/22 00:11:52;;;;;;;5.90;1.55;;;;;;;21.99;36.53;102640.47;4181341;28;20045;-64
2022/04/22 00:13:55;;;;;;;6.78;1.75;;;;;;;22.00;36.47;102641.31;4178143;28;20029;-65
2022/04/22 00:15:57;;;;;;;4.85;1.63;;;;;;;21.99;36.82;102636.81;4165070;28;20045;-65
2022/04/22 00:17:58;;;;;;;11.18;1.90;;;;;;;21.97;36.41;102636.22;4171247;28;20063;-65
2022/04/22 00:20:03;;;;;;;6.97;1.88;;;;;;;21.92;36.63;102624.97;4179044;28;20048;-64
2022/04/22 00:22:04;;;;;;;5.38;1.52;;;;;;;21.98;36.56;102632.34;4176982;28;20029;-65
2022/04/22 00:24:06;;;;;;;9.80;1.65;;;;;;;21.99;36.50;102639.59;4180415;28;20033;-65
2022/04/22 00:26:08;;;;;;;13.88;2.05;;;;;;;21.98;36.68;102630.41;4181563;28;20554;-65
2022/04/22 00:28:09;;;;;;;6.28;1.80;;;;;;;22.00;36.47;102632.97;4182730;28;20049;-65
2022/04/22 00:30:14;;;;;;;9.75;2.60;;;;;;;22.00;36.32;102646.91;4182507;28;20041;-64
2022/04/22 00:32:15;;;;;;;9.67;2.07;;;;;;;22.01;36.59;102643.00;4179610;28;20096;-65
2022/04/22 00:34:17;;;;;;;9.98;1.60;;;;;;;21.95;36.39;102621.72;4177629;28;20569;-63
2022/04/22 00:36:18;;;;;;;5.32;1.88;;;;;;;;;;4181650;28;20523;-64
2022/04/22 00:38:19;;;;;;;9.10;1.67;;;;;;;22.00;36.52;102641.31;4168175;28;20120;-64
2022/04/22 00:40:21;;;;;;;11.93;1.50;;;;;;;21.99;36.66;102639.59;4165288;28;20064;-65
2022/04/22 00:42:28;;;;;;;6.60;1.77;;;;;;;21.99;36.58;102642.38;4165222;28;20071;-64
2022/04/22 00:44:29;;;;;;;9.32;1.60;;;;;;;21.97;36.38;102633.44;4165341;28;20049;-66
2022/04/22 00:46:30;;;;;;;9.40;2.00;;;;;;;21.82;36.57;102612.53;4172100;28;20033;-66
2022/04/22 00:48:31;;;;;;;6.22;1.70;;;;;;;21.98;36.81;102638.75;4174306;28;20106;-64
2022/04/22 00:50:33;;;;;;;5.43;1.60;;;;;;;21.96;36.53;102627.03;4181443;28;20025;-66
2022/04/22 00:52:35;;;;;;;7.32;1.70;;;;;;;21.97;36.68;102625.91;4178598;28;20423;-66
2022/04/22 00:54:37;;;;;;;6.60;1.60;;;;;;;21.98;36.78;102626.75;4172286;28;20053;-66
2022/04/22 00:56:41;;;;;;;4.93;1.50;;;;;;;21.97;36.74;102619.50;4170813;28;20277;-65
2022/04/22 00:58:49;;;;;;;7.47;1.57;;;;;;;21.98;36.96;102647.13;4175332;28;20569;-64
2022/04/22 01:00:50;;;;;;;8.35;1.70;;;;;;;21.90;36.62;102630.81;4164882;28;20394;-65
2022/04/22 01:02:51;;;;;;;6.95;1.65;;;;;;;21.52;37.04;102561.72;4165275;28;20095;-65
2022/04/22 01:09:49;;;;;;;11.68;2.22;;;;;;;21.99;37.23;102651.63;4167389;28;20087;-64
2022/04/22 01:11:50;;;;;;;9.98;2.97;;;;;;;21.97;37.31;102653.78;4167671;28;20037;-65
2022/04/22 01:13:55;;;;;;;18.25;4.78;;;;;;;21.91;37.33;102640.00;4179360;28;20045;-65
2022/04/22 01:15:58;;;;;;;17.00;7.65;;;;;;;21.99;37.43;102667.47;4174228;28;20074;-65
2022/04/22 01:18:00;;;;;;;29.27;9.50;;;;;;;21.98;37.80;102661.06;4181283;28;20044;-65
2022/04/22 01:20:05;;;;;;;26.20;11.68;;;;;;;21.99;37.63;102668.34;4180372;28;20407;-65
2022/04/22 01:22:07;;;;;;;29.77;13.07;;;;;;;21.98;37.83;102665.78;4183260;28;20078;-65
2022/04/22 01:24:08;;;;;;;32.60;16.77;;;;;;;21.95;38.12;102663.50;4181600;28;20052;-64
2022/04/22 01:26:12;;;;;;;36.70;18.92;;;;;;;21.99;37.93;102668.34;4181181;28;20045;-65
2022/04/22 01:28:14;;;;;;;50.08;19.95;;;;;;;22.01;38.39;102682.03;4177057;28;20045;-65
2022/04/22 01:30:19;;;;;;;47.17;20.55;;;;;;;21.99;38.06;102673.06;4177264;28;20048;-65
2022/04/22 01:32:23;;;;;;;45.40;21.45;;;;;;;21.99;37.97;102673.94;4172790;28;20447;-64
2022/04/22 01:35:08;;;;;;;43.55;23.08;;;;;;;21.99;38.23;102678.63;4164618;28;20029;-65
2022/04/22 01:39:56;;;;;;;47.03;24.67;;;;;;;22.03;38.02;102685.41;4165452;28;20087;-65
2022/04/22 01:42:51;;;;;;;49.10;26.00;;;;;;;22.02;38.37;102686.50;4165757;28;20042;-65
2022/04/22 01:44:58;;;;;;;53.70;27.33;;;;;;;22.04;38.03;102687.13;4175421;28;20048;-66
2022/04/22 01:47:45;;;;;;;45.83;26.67;;;;;;;22.01;38.23;102682.03;4180409;28;20443;-64
2022/04/22 01:49:47;;;;;;;53.35;29.13;;;;;;;22.03;38.68;102686.25;4141148;28;20093;-65
2022/04/22 01:51:51;;;;;;;51.78;27.58;;;;;;;22.02;38.34;102683.72;4143869;28;20552;-66
2022/04/22 01:54:56;;;;;;;;;;;;;;;;;;;;;
2022/04/22 02:00:17;;;;;;;61.70;32.07;;;;;;;21.99;38.28;102692.56;4136225;28;20048;-64
2022/04/22 02:03:03;;;;;;;54.40;31.37;;;;;;;22.01;38.76;102690.41;4142258;28;20169;-65
2022/04/22 02:05:07;;;;;;;62.20;31.42;;;;;;;22.03;38.32;102690.97;4178590;28;20308;-65
2022/04/22 02:07:51;;;;;;;59.53;30.92;;;;;;;22.00;38.87;102691.50;4167213;28;20041;-65
2022/04/22 02:10:10;;;;;;;61.25;30.85;;;;;;;21.92;38.89;102680.72;4182569;28;20496;-65
2022/04/22 02:12:14;;;;;;;72.93;33.47;;;;;;;21.99;39.11;102689.78;4180857;28;20345;-66
2022/04/22 02:15:01;;;;;;;;;;;;;;;;;;;;;
2022/04/22 02:17:03;;;;;;;60.25;31.27;;;;;;;21.99;38.65;102685.06;4178780;28;20049;-64
2022/04/22 02:19:10;;;;;;;58.17;29.60;;;;;;;21.96;39.09;102679.13;4177480;28;20095;-64
2022/04/22 02:21:12;;;;;;;64.95;32.80;;;;;;;21.94;38.75;102662.63;4163790;28;20376;-65
2022/04/22 02:23:13;;;;;;;54.85;31.40;;;;;;;21.98;39.13;102669.41;4173056;28;20029;-64
2022/04/22 02:26:11;;;;;;;65.13;32.63;;;;;;;21.93;39.13;102669.31;4173491;28;20396;-64
2022/04/22 02:28:50;;;;;;;;;;;;;;;;;;;;;
2022/04/22 02:30:52;;;;;;;57.17;31.35;;;;;;;21.93;39.15;102668.47;4141503;28;20084;-65
2022/04/22 02:33:18;;;;;;;58.10;31.90;;;;;;;21.96;38.72;102676.34;4170894;28;20091;-64
2022/04/22 02:38:28;;;;;;;61.03;30.48;;;;;;;21.96;38.95;102679.97;4161525;28;20049;-64
2022/04/22 02:45:28;;;;;;;58.50;30.95;;;;;;;21.97;39.25;102666.88;4184758;28;20078;-63
2022/04/22 02:50:35;;;;;;;57.92;28.58;;;;;;;21.98;39.23;102665.78;4132383;28;20489;-64
2022/04/22 02:52:55;;;;;;;;;;;;;;;;;;;;;
2022/04/22 03:01:49;;;;;;;51.17;29.80;;;;;;;21.94;39.75;102662.63;4084390;29;20091;-66
2022/04/22 03:10:37;;;;;;;;;;;;;;;;;;;;;
2022/04/22 03:13:16;;;;;;;58.05;27.50;;;;;;;21.93;39.11;102658.16;4151518;28;20036;-64
2022/04/22 03:16:28;;;;;;;44.42;24.63;;;;;;;21.91;39.74;102656.75;4166833;28;20072;-64
2022/04/22 03:21:44;;;;;;;42.47;24.48;;;;;;;21.94;39.41;102659.84;4157077;28;20111;-65
2022/04/22 03:24:37;;;;;;;44.03;23.58;;;;;;;21.94;39.40;102659.00;4180592;28;20041;-65
2022/04/22 03:27:10;;;;;;;43.20;23.17;;;;;;;21.96;39.38;102665.19;4180819;28;20454;-65
2022/04/22 03:31:54;;;;;;;38.90;21.45;;;;;;;21.95;39.69;102653.22;4180777;28;20100;-66
2022/04/22 03:38:42;;;;;;;;;;;;;;;;;;;;;
2022/04/22 03:44:26;;;;;;;;;;;;;;;;;;;;;
2022/04/22 03:47:28;;;;;;;;;;;;;;;;;;;;;
2022/04/22 03:53:40;;;;;;;;;;;;;;;;;;;;;
2022/04/22 03:55:44;;;;;;;34.72;17.70;;;;;;;21.97;39.61;102664.94;4170398;28;20483;-65
2022/04/22 04:04:43;;;;;;;35.22;16.65;;;;;;;21.94;39.87;102670.16;4170342;28;20107;-64
2022/04/22 04:27:52;;;;;;;26.67;14.55;;;;;;;21.91;39.69;102676.25;4148121;28;20088;-64
2022/04/22 04:33:24;;;;;;;23.80;12.70;;;;;;;21.90;39.97;102680.09;4147493;28;20042;-65
2022/04/22 04:36:28;;;;;;;;;;;;;;;;;;;;;
2022/04/22 04:39:39;;;;;;;;;;;;;;;;;;;;;
2022/04/22 04:49:06;;;;;;;;;;;;;;;;;;;;;
2022/04/22 04:55:09;;;;;;;;;;;;;;;;;;;;;
2022/04/22 05:03:44;;;;;;;18.95;10.68;;;;;;;21.87;39.49;102694.53;4134911;28;20424;-65
2022/04/22 05:09:06;;;;;;;19.50;10.02;;;;;;;21.88;39.53;102699.03;4136243;28;20045;-65
2022/04/22 05:12:05;;;;;;;16.67;9.60;;;;;;;21.87;39.39;102702.91;4175727;28;20044;-65
2022/04/22 05:14:07;;;;;;;20.25;9.77;;;;;;;21.78;39.30;102678.19;4158800;28;20103;-66
2022/04/22 05:20:03;;;;;;;18.58;9.57;;;;;;;21.81;39.27;102686.09;4160110;28;20107;-64
2022/04/22 05:22:20;;;;;;;17.67;9.65;;;;;;;21.89;39.12;102695.13;4157476;28;20110;-64
2022/04/22 05:25:16;;;;;;;17.50;9.10;;;;;;;21.88;39.38;102699.03;4177177;28;20490;-64
2022/04/22 05:27:14;;;;;;;18.88;10.48;;;;;;;21.90;39.06;102691.25;4164438;28;20123;-65
2022/04/22 05:34:25;;;;;;;16.65;9.02;;;;;;;21.89;38.98;102693.19;4165309;28;20123;-65
2022/04/22 05:40:28;;;;;;;13.18;8.45;;;;;;;21.86;38.93;102685.34;4152234;28;20053;-65
2022/04/22 05:42:29;;;;;;;16.08;7.90;;;;;;;21.74;38.89;102657.50;4092937;29;20047;-65
2022/04/22 05:48:54;;;;;;;16.67;8.05;;;;;;;21.87;38.98;102677.81;4114303;28;20039;-65
2022/04/22 05:50:55;;;;;;;15.88;7.53;;;;;;;21.90;39.00;102680.97;4114158;28;20042;-64
2022/04/22 05:54:09;;;;;;;12.73;7.45;;;;;;;21.85;39.09;102680.84;4117693;28;20089;-64
2022/04/22 05:56:56;;;;;;;13.70;7.45;;;;;;;21.77;38.96;102654.22;4165680;28;20552;-65
2022/04/22 05:58:59;;;;;;;12.73;7.43;;;;;;;21.86;39.17;102676.97;4166156;28;20763;-65
2022/04/22 06:01:00;;;;;;;13.32;6.63;;;;;;;21.87;39.08;102680.63;4174899;28;20113;-65
2022/04/22 06:03:42;;;;;;;13.50;6.95;;;;;;;21.84;38.86;102679.16;4171916;28;20048;-65
2022/04/22 06:11:47;;;;;;;11.35;6.38;;;;;;;21.84;39.08;102673.56;4181495;28;20099;-64
2022/04/22 06:14:49;;;;;;;12.50;6.80;;;;;;;21.85;39.00;102666.06;4173674;28;20049;-65
2022/04/22 06:19:43;;;;;;;10.52;6.35;;;;;;;21.88;38.75;102665.56;4170617;28;20118;-65
2022/04/22 06:21:44;;;;;;;11.52;6.10;;;;;;;21.86;38.72;102665.00;4173931;28;20091;-65
2022/04/22 06:23:45;;;;;;;9.25;5.13;;;;;;;21.85;38.65;102666.06;4176953;28;20426;-65
2022/04/22 06:25:48;;;;;;;9.00;5.40;;;;;;;21.84;39.21;102659.66;4187150;28;20037;-65
2022/04/22 06:27:49;;;;;;;11.32;6.18;;;;;;;21.72;38.95;102640.19;4169806;28;20527;-65
2022/04/22 06:30:27;;;;;;;11.45;5.30;;;;;;;21.82;39.21;102667.41;4181150;28;20041;-65
2022/04/22 06:32:28;;;;;;;9.25;5.40;;;;;;;21.85;38.80;102664.13;4167490;28;20565;-65
2022/04/22 06:34:33;;;;;;;10.65;6.10;;;;;;;21.85;39.17;102654.91;4173658;28;20154;-64
2022/04/22 06:47:37;;;;;;;9.02;5.22;;;;;;;21.82;39.22;102665.47;4170765;28;20102;-65
2022/04/22 06:50:23;;;;;;;8.00;4.78;;;;;;;21.61;38.83;102635.47;4176415;28;20082;-64
2022/04/22 06:52:25;;;;;;;8.32;5.05;;;;;;;21.80;38.79;102662.06;4173596;28;20103;-65
2022/04/22 06:55:31;;;;;;;9.45;5.15;;;;;;;21.80;39.15;102662.06;4167176;28;20089;-65
2022/04/22 06:58:14;;;;;;;10.30;4.80;;;;;;;21.83;38.73;102658.81;4140814;28;20041;-64
2022/04/22 07:00:59;;;;;;;8.32;4.90;;;;;;;21.80;38.80;102659.28;4183101;28;20086;-64
2022/04/22 07:03:01;;;;;;;8.43;4.53;;;;;;;21.81;38.68;102654.59;4140416;28;20429;-65
2022/04/22 07:05:51;;;;;;;;;;;;;;;;;;;;;
2022/04/22 07:07:53;;;;;;;9.15;4.63;;;;;;;21.83;38.70;102653.22;4158203;28;20127;-66
2022/04/22 07:09:54;;;;;;;8.85;5.15;;;;;;;21.83;38.87;102653.22;4167132;28;20107;-64
2022/04/22 07:12:01;;;;;;;8.63;4.60;;;;;;;21.82;38.72;102645.13;4180030;28;20377;-65
2022/04/22 07:15:18;;;;;;;8.93;4.88;;;;;;;21.80;38.91;102647.28;4183846;28;20045;-65
2022/04/22 07:17:25;;;;;;;6.57;4.75;;;;;;;21.81;38.97;102637.88;4167956;28;20113;-65
2022/04/22 07:19:27;;;;;;;7.43;4.68;;;;;;;21.75;38.85;102627.69;4182398;28;20099;-65
2022/04/22 07:22:01;;;;;;;;;;;;;;;;;;;;;
2022/04/22 07:24:03;;;;;;;6.25;4.10;;;;;;;21.81;38.97;102637.88;4162798;28;20041;-65
2022/04/22 07:26:09;;;;;;;13.32;5.18;;;;;;;21.80;38.85;102642.56;4182004;28;20159;-65
2022/04/22 07:28:14;;;;;;;5.22;3.67;;;;;;;21.81;38.57;102643.44;4181839;28;20045;-65
2022/04/22 07:31:03;;;;;;;4.95;3.88;;;;;;;21.72;38.92;102628.19;4183679;28;20479;-66
2022/04/22 07:33:58;;;;;;;8.80;4.43;;;;;;;21.80;38.99;102645.34;4181040;28;20049;-65
2022/04/22 07:36:00;;;;;;;6.50;4.30;;;;;;;21.82;38.96;102634.81;4181710;28;20082;-65
2022/04/22 07:38:50;;;;;;;6.10;3.92;;;;;;;21.72;38.89;102629.03;4178592;28;20041;-65
2022/04/22 07:41:17;;;;;;;7.90;4.43;;;;;;;21.80;38.87;102637.00;4173202;28;20056;-65
2022/04/22 07:52:24;;;;;;;6.65;3.80;;;;;;;21.78;38.70;102641.97;4154327;28;20053;-65
2022/04/22 07:54:31;;;;;;;5.97;3.38;;;;;;;21.80;38.51;102637.00;4174223;28;20045;-66
2022/04/22 07:56:36;;;;;;;6.80;3.55;;;;;;;21.80;38.57;102637.00;4172320;28;20030;-64
2022/04/22 07:59:25;;;;;;;7.20;3.95;;;;;;;21.74;38.56;102632.41;4181013;28;20476;-65
2022/04/22 08:01:26;;;;;;;5.05;3.30;;;;;;;21.78;38.63;102636.41;4170798;28;20079;-65
2022/04/22 08:04:55;;;;;;;5.35;3.17;;;;;;;21.77;38.75;102631.94;4166988;28;20096;-65
2022/04/22 08:06:50;;;;;;;5.32;3.30;;;;;;;21.78;38.84;102624.41;4144805;28;20041;-65
2022/04/22 08:18:05;;;;;;;5.63;3.33;;;;;;;21.77;38.43;102626.34;4162545;28;20088;-64
2022/04/22 08:20:11;;;;;;;5.50;2.97;;;;;;;21.76;38.85;102630.25;4165218;28;20099;-64
2022/04/22 08:25:12;;;;;;;4.22;2.67;;;;;;;21.72;38.63;102625.41;4176264;28;20045;-64
2022/04/22 08:27:24;;;;;;;6.35;3.17;;;;;;;21.73;38.88;102636.28;4165421;28;20439;-64
2022/04/22 08:29:25;;;;;;;5.53;3.17;;;;;;;21.75;38.47;102634.09;4171143;28;20058;-64
2022/04/22 08:37:12;;;;;;;4.95;2.28;;;;;;;21.77;38.81;102631.94;4165506;28;20491;-65
2022/04/22 08:39:39;;;;;;;3.38;2.70;;;;;;;21.74;38.80;102632.41;4173906;28;20573;-64
2022/04/22 08:42:43;;;;;;;;;;;;;;;;;;;;;
2022/04/22 08:50:16;;;;;;;3.75;2.42;;;;;;;21.77;38.45;102645.84;4107849;28;20097;-65
2022/04/22 08:52:34;;;;;;;4.15;2.40;;;;;;;21.73;38.77;102653.00;4156895;28;20045;-65
2022/04/22 08:55:18;;;;;;;4.55;3.03;;;;;;;21.72;38.93;102659.69;4171147;28;20090;-65
2022/04/22 08:58:08;;;;;;;3.70;2.53;;;;;;;21.72;38.73;102656.06;4167410;28;20041;-64
2022/04/22 09:01:06;;;;;;;4.13;2.50;;;;;;;21.72;38.46;102662.47;4115767;28;20049;-65
2022/04/22 09:03:12;;;;;;;;;;;;;;;21.73;38.78;102654.94;4182598;28;20481;-66
2022/04/22 09:05:13;;;;;;;;;;;;;;;21.75;38.78;102650.81;4180260;28;19959;-65
2022/04/22 09:07:18;;;;;;;4.13;2.65;;;;;;;21.80;38.35;102648.13;4165051;28;20306;-66
2022/04/22 09:09:25;;;;;;;4.63;2.50;;;;;;;21.78;38.59;102655.91;4147088;28;20038;-65
2022/04/22 09:11:29;;;;;;;4.70;2.40;;;;;;;21.77;38.63;102657.00;4180208;28;20102;-65
2022/04/22 09:14:19;;;;;;;3.75;2.60;;;;;;;21.74;38.83;102651.06;4181059;28;20143;-65
2022/04/22 09:16:22;;;;;;;4.53;2.50;;;;;;;21.61;38.38;102634.63;4164803;28;20041;-65
2022/04/22 09:18:26;;;;;;;3.63;2.20;;;;;;;21.71;38.46;102646.81;4174354;28;20110;-65
2022/04/22 09:20:37;;;;;;;4.37;2.50;;;;;;;21.70;38.70;102647.06;4165213;28;20050;-65
2022/04/22 09:22:38;;;;;;;3.45;2.58;;;;;;;21.72;38.49;102650.47;4174816;28;20045;-66
2022/04/22 09:24:59;;;;;;;3.88;2.72;;;;;;;21.57;38.81;102631.47;4168024;28;20033;-65
2022/04/22 09:27:06;;;;;;;5.95;2.92;;;;;;;21.71;38.83;102644.03;4165158;28;20097;-65
2022/04/22 09:29:10;;;;;;;3.70;2.50;;;;;;;21.53;38.74;102624.69;4164227;28;20099;-65
2022/04/22 09:31:48;;;;;;;3.88;2.42;;;;;;;21.68;38.89;102652.06;4180061;28;20388;-65
2022/04/22 09:34:50;;;;;;;2.85;2.28;;;;;;;21.66;38.49;102663.44;4164678;28;20054;-66
2022/04/22 09:44:35;;;;;;;3.65;2.20;;;;;;;21.68;38.47;102649.28;4163652;28;20464;-65
2022/04/22 09:46:37;;;;;;;2.97;2.20;;;;;;;21.69;38.83;102650.97;4163922;28;20465;-65
2022/04/22 09:48:44;;;;;;;2.20;1.88;;;;;;;21.64;38.59;102643.34;4175896;28;20036;-65
2022/04/22 09:50:52;;;;;;;2.33;1.85;;;;;;;21.65;38.37;102656.16;4167488;28;20459;-65
2022/04/22 09:53:03;;;;;;;3.97;2.10;;;;;;;21.63;38.74;102663.94;4183063;28;20079;-65
2022/04/22 09:55:07;;;;;;;2.92;2.08;;;;;;;21.68;38.67;102677.97;4180283;28;20041;-65
2022/04/22 09:57:09;;;;;;;3.13;2.10;;;;;;;21.64;38.62;102664.78;4180717;28;20041;-65
2022/04/22 09:59:32;;;;;;;3.42;2.10;;;;;;;21.66;38.83;102674.56;4179781;28;20052;-65
2022/04/22 10:01:34;;;;;;;2.83;2.08;;;;;;;21.67;38.63;102665.16;4179157;28;20106;-65
2022/04/22 10:03:37;;;;;;;4.20;2.25;;;;;;;21.68;38.50;102666.84;4180218;28;20036;-65
2022/04/22 10:05:44;;;;;;;3.80;2.03;;;;;;;21.67;38.58;102670.72;4180145;28;20468;-65
2022/04/22 10:07:56;;;;;;;3.97;2.58;;;;;;;21.65;38.45;102666.47;4178593;28;20489;-65
2022/04/22 10:10:02;;;;;;;2.55;1.95;;;;;;;21.62;38.45;102665.00;4164420;28;20021;-64
2022/04/22 10:12:09;;;;;;;3.10;1.90;;;;;;;21.66;38.63;102670.94;4170451;28;20044;-64
2022/04/22 10:14:11;;;;;;;2.53;1.92;;;;;;;21.67;38.39;102678.19;4174217;28;20033;-64
2022/04/22 10:16:14;;;;;;;2.97;1.90;;;;;;;21.65;38.56;102686.81;4171376;28;20450;-64
2022/04/22 10:18:16;;;;;;;2.90;2.05;;;;;;;21.65;38.66;102695.19;4182992;28;20490;-63
2022/04/22 10:20:19;;;;;;;2.97;2.13;;;;;;;21.62;38.70;102686.44;4172292;28;20542;-64
2022/04/22 10:22:22;;;;;;;2.72;1.83;;;;;;;21.64;38.53;102701.84;4164323;28;20025;-64
2022/04/22 10:24:25;;;;;;;3.10;2.13;;;;;;;21.64;38.92;102709.34;4174628;28;20049;-64
2022/04/22 10:26:26;;;;;;;2.70;1.98;;;;;;;21.53;38.65;102694.31;4171460;28;20045;-65
2022/04/22 10:28:31;;;;;;;3.17;2.30;;;;;;;21.53;38.84;102697.13;4172407;28;20388;-65
2022/04/22 10:30:35;;;;;;;3.40;2.58;;;;;;;21.61;38.65;102710.69;4173502;28;20379;-65
2022/04/22 10:32:41;;;;;;;4.85;2.00;;;;;;;21.56;38.94;102714.19;4180263;28;20049;-65
2022/04/22 10:34:44;;;;;;;2.65;2.00;;;;;;;21.60;38.91;102725.72;4179631;28;20049;-65
2022/04/22 10:36:54;;;;;;;2.67;1.75;;;;;;;21.61;38.84;102730.19;4169407;28;20550;-65
2022/04/22 10:38:55;;;;;;;2.33;2.13;;;;;;;21.61;38.55;102732.97;4163833;28;20365;-64
2022/04/22 10:41:00;;;;;;;3.33;2.08;;;;;;;21.61;38.80;102734.91;4174819;28;20041;-65
2022/04/22 10:43:02;;;;;;;2.28;1.90;;;;;;;21.58;38.93;102722.31;4169564;28;20107;-65
2022/04/22 10:47:46;;;;;;;2.38;1.83;;;;;;;21.55;38.83;102733.94;4178703;28;20462;-65
2022/04/22 10:49:47;;;;;;;2.60;1.70;;;;;;;21.56;38.97;102738.41;4179686;28;20392;-64
2022/04/22 10:52:17;;;;;;;2.75;1.80;;;;;;;21.52;38.68;102745.56;4180882;28;20044;-65
2022/04/22 10:54:21;;;;;;;2.78;2.25;;;;;;;21.55;38.67;102756.22;4180447;28;20049;-66
2022/04/22 10:56:32;;;;;;;1.85;1.65;;;;;;;21.54;38.90;102760.97;4182995;28;20556;-65
2022/04/22 10:58:34;;;;;;;3.95;2.10;;;;;;;21.56;38.95;102769.06;4180406;28;20107;-65
2022/04/22 11:00:36;;;;;;;2.03;1.80;;;;;;;21.58;38.57;102766.91;4180183;28;20075;-65
2022/04/22 11:02:42;;;;;;;2.60;1.80;;;;;;;21.55;38.65;102761.81;4171461;28;20029;-64
2022/04/22 11:04:43;;;;;;;2.40;1.70;;;;;;;21.58;38.89;102766.91;4182939;28;20048;-64
2022/04/22 11:06:45;;;;;;;5.47;2.40;;;;;;;21.60;38.53;102761.91;4184291;28;20554;-64
2022/04/22 11:08:59;;;;;;;3.05;2.05;;;;;;;21.64;38.89;102776.22;4175282;28;20037;-65
2022/04/22 11:11:13;;;;;;;3.25;2.08;;;;;;;21.68;38.63;102772.72;4166734;28;20037;-65
2022/04/22 11:13:39;;;;;;;2.72;2.25;;;;;;;21.69;38.36;102776.34;4183928;28;20053;-64
2022/04/22 11:15:44;;;;;;;3.10;1.83;;;;;;;21.73;38.35;102775.63;4181535;28;20041;-64
2022/04/22 11:17:54;;;;;;;4.70;2.05;;;;;;;21.74;38.41;102782.03;4167090;28;20041;-64
2022/04/22 11:20:02;;;;;;;3.53;2.10;;;;;;;21.75;38.15;102779.00;4179772;28;20041;-65
2022/04/22 11:22:06;;;;;;;3.00;2.20;;;;;;;21.77;38.51;102781.56;4173478;28;20041;-63
2022/04/22 11:24:15;;;;;;;4.53;2.38;;;;;;;21.76;38.40;102783.50;4183450;28;20037;-64
2022/04/22 11:26:17;;;;;;;3.83;2.20;;;;;;;21.79;38.38;102783.00;4174675;28;20559;-65
2022/04/22 11:28:21;;;;;;;2.88;1.88;;;;;;;21.80;38.14;102781.91;4181417;28;20106;-64
2022/04/22 11:30:25;;;;;;;4.82;2.08;;;;;;;21.82;38.42;102795.59;4184485;28;20044;-64
2022/04/22 11:32:27;;;;;;;4.05;2.00;;;;;;;21.76;38.29;102786.28;4181422;28;20485;-63
2022/04/22 11:35:03;;;;;;;2.08;1.60;;;;;;;21.82;38.66;102798.41;4182457;28;20083;-64
2022/04/22 11:37:20;;;;;;;3.53;1.90;;;;;;;21.67;38.23;102764.56;4178395;28;20374;-64
2022/04/22 11:39:26;;;;;;;3.90;2.05;;;;;;;21.88;38.52;102800.19;4166677;28;20385;-65
2022/04/22 11:41:28;;;;;;;2.78;1.92;;;;;;;21.86;38.35;102795.97;4166289;28;20091;-64
2022/04/22 11:43:32;;;;;;;3.53;1.83;;;;;;;21.86;38.33;102790.41;4181910;28;20098;-64
2022/04/22 11:45:55;;;;;;;3.42;2.30;;;;;;;21.88;38.45;102802.16;4179063;28;20044;-64
2022/04/22 11:47:57;;;;;;;2.45;2.00;;;;;;;21.92;38.55;102800.56;4178851;28;20430;-64
2022/04/22 11:50:01;;;;;;;2.97;2.08;;;;;;;21.91;38.21;102798.88;4181885;28;20049;-64
2022/04/22 11:52:04;;;;;;;3.30;2.20;;;;;;;21.92;38.68;102800.56;4183023;28;20354;-63
2022/04/22 11:54:05;;;;;;;2.90;1.88;;;;;;;21.93;38.33;102805.06;4184259;28;20099;-63
2022/04/22 11:56:06;;;;;;;3.47;2.03;;;;;;;21.93;38.32;102802.25;4183310;28;20082;-64
2022/04/22 11:58:24;;;;;;;3.67;2.20;;;;;;;21.93;38.57;102805.91;4181412;28;20090;-64
2022/04/22 12:05:32;;;;;;;3.65;2.28;;;;;;;21.97;38.86;102809.91;4182878;28;20078;-62
2022/04/22 12:09:56;;;;;;;7.55;2.25;;;;;;;21.99;38.71;102806.84;4181889;28;20094;-65
2022/04/22 12:11:58;;;;;;;6.40;2.15;;;;;;;21.86;38.86;102787.63;4181434;28;20036;-64
2022/04/22 12:13:59;;;;;;;5.82;2.10;;;;;;;;;;4184309;28;20484;-65
2022/04/22 12:16:01;;;;;;;5.13;2.08;;;;;;;;;;4183342;28;20120;-65
2022/04/22 12:18:02;;;;;;;7.07;2.13;;;;;;;22.03;38.81;102814.50;4190052;28;20166;-63
2022/04/22 12:20:08;;;;;;;11.40;2.80;;;;;;;22.02;39.01;102807.22;4180292;28;20053;-64
2022/04/22 12:22:12;;;;;;;8.82;2.45;;;;;;;22.04;39.08;102816.22;4182475;28;20033;-64
2022/04/22 12:24:16;;;;;;;6.63;2.45;;;;;;;22.04;39.08;102804.22;4182355;28;20075;-64
2022/04/22 12:26:21;;;;;;;8.43;2.50;;;;;;;22.05;39.36;102808.69;4183929;28;20549;-64
2022/04/22 12:28:24;;;;;;;5.68;2.47;;;;;;;22.07;39.25;102803.69;4184223;28;20094;-64
2022/04/22 12:30:35;;;;;;;9.00;2.25;;;;;;;22.07;39.14;102815.69;4183410;28;20478;-65
2022/04/22 12:32:38;;;;;;;6.43;2.17;;;;;;;22.07;38.95;102814.84;4183820;28;20075;-65
2022/04/22 12:34:40;;;;;;;11.85;2.70;;;;;;;22.02;38.88;102815.59;4184563;28;20045;-64
2022/04/22 12:36:54;;;;;;;4.25;2.58;;;;;;;22.10;39.26;102819.09;4178816;28;20037;-62
2022/04/22 12:38:56;;;;;;;4.72;2.03;;;;;;;22.02;39.13;102806.38;4183257;28;20098;-63
2022/04/22 12:40:57;;;;;;;6.35;2.08;;;;;;;22.13;39.30;102830.66;4182898;28;20041;-63
2022/04/22 12:43:28;;;;;;;4.82;2.42;;;;;;;22.12;39.17;102828.09;4182107;28;20045;-64
2022/04/22 12:52:35;;;;;;;9.32;2.78;;;;;;;22.17;39.65;102828.22;4180244;28;20087;-65
2022/04/22 12:54:37;;;;;;;11.05;2.28;;;;;;;22.18;39.45;102827.97;4181645;28;20036;-65
2022/04/22 12:56:39;;;;;;;6.90;2.20;;;;;;;22.19;39.37;102829.69;4181289;28;20037;-64
2022/04/22 12:58:58;;;;;;;5.90;2.30;;;;;;;22.17;39.80;102831.84;4173510;28;20099;-64
2022/04/22 13:01:02;;;;;;;6.72;2.30;;;;;;;22.19;39.30;102829.69;4165718;28;20042;-65
2022/04/22 13:03:04;;;;;;;6.88;2.15;;;;;;;22.19;39.36;102831.63;4164662;28;20489;-65
2022/04/22 13:05:06;;;;;;;6.20;2.58;;;;;;;22.20;39.49;102831.38;4169177;28;20480;-64
2022/04/22 13:07:11;;;;;;;8.77;2.38;;;;;;;22.20;39.41;102820.22;4165349;28;20033;-64
2022/04/22 13:09:16;;;;;;;9.80;2.55;;;;;;;22.06;39.49;102808.44;4165563;28;20076;-64
2022/04/22 13:11:22;;;;;;;8.75;2.60;;;;;;;22.21;39.55;102827.47;4165754;28;20053;-65
2022/04/22 13:13:27;;;;;;;4.32;2.03;;;;;;;22.13;39.77;102813.94;4165178;28;20021;-65
2022/04/22 13:15:29;;;;;;;6.70;2.38;;;;;;;22.21;39.46;102821.91;4164192;28;20436;-64
2022/04/22 13:17:30;;;;;;;6.75;2.50;;;;;;;22.22;39.38;102828.31;4163792;28;20096;-63
2022/04/22 13:19:31;;;;;;;10.38;2.28;;;;;;;22.20;39.54;102828.56;4176282;28;20106;-65
2022/04/22 13:21:33;;;;;;;19.80;3.08;;;;;;;21.89;39.77;102774.03;4175756;28;20037;-64
2022/04/22 13:23:36;;;;;;;10.10;2.50;;;;;;;22.24;39.63;102838.16;4164720;28;20037;-65
2022/04/22 13:25:37;;;;;;;7.63;2.38;;;;;;;22.26;39.52;102832.31;4164664;28;20041;-64
2022/04/22 13:27:46;;;;;;;8.10;2.60;;;;;;;22.26;39.45;102830.38;4172498;28;20079;-64
2022/04/22 13:29:47;;;;;;;5.25;2.50;;;;;;;22.27;39.50;102826.53;4180033;28;20111;-65
2022/04/22 13:31:48;;;;;;;5.78;2.50;;;;;;;22.28;39.36;102828.22;4178076;28;20037;-64
2022/04/22 13:33:50;;;;;;;12.27;2.95;;;;;;;22.29;39.69;102827.09;4170141;28;20033;-64
2022/04/22 13:35:52;;;;;;;5.22;2.40;;;;;;;22.06;39.75;102790.88;4171491;28;20087;-65
2022/04/22 13:37:54;;;;;;;8.23;2.55;;;;;;;22.28;39.86;102827.38;4169742;28;20559;-65
2022/04/22 13:39:58;;;;;;;18.00;3.05;;;;;;;22.24;39.84;102827.00;4176647;28;20427;-64
2022/04/22 13:42:01;;;;;;;6.20;2.40;;;;;;;22.28;39.74;102828.22;4176090;28;20099;-64
2022/04/22 13:44:03;;;;;;;8.27;2.58;;;;;;;22.31;39.83;102832.44;4173037;28;20044;-64
2022/04/22 13:53:06;;;;;;;6.40;2.88;;;;;;;22.35;39.52;102849.53;4168229;28;20082;-65
2022/04/22 13:55:11;;;;;;;7.43;2.70;;;;;;;22.24;39.70;102824.22;4167703;28;20041;-65
2022/04/22 13:57:12;;;;;;;9.45;2.80;;;;;;;22.32;39.64;102846.16;4171400;28;20045;-65
2022/04/22 13:59:15;;;;;;;190.95;23.30;;;;;;;22.33;39.39;102850.63;4173702;28;20041;-65